sensor_id;sensor_type;location;lat;lon;timestamp;pressure;altitude;pressure_sealevel;temperature;humidity
71601;BME280;59446;52.192;4.628;2022-11-20T00:02:24;101451.28;;;16.12;52.52
71601;BME280;59446;52.192;4.628;2022-11-20T00:04:49;101456.63;;;16.11;52.98
71601;BME280;59446;52.192;4.628;2022-11-20T00:07:14;101456.72;;;16.08;52.42
71601;BME280;59446;52.192;4.628;2022-11-20T00:09:40;101453.28;;;16.05;52.79
71601;BME280;59446;52.192;4.628;2022-11-20T00:12:05;101465.50;;;16.06;52.65
71601;BME280;59446;52.192;4.628;2022-11-20T00:14:31;101458.56;;;16.05;53.11
71601;BME280;59446;52.192;4.628;2022-11-20T00:16:56;101455.84;;;16.07;53.40
71601;BME280;59446;52.192;4.628;2022-11-20T00:19:21;101451.59;;;16.04;53.47
71601;BME280;59446;52.192;4.628;2022-11-20T00:21:47;101460.38;;;16.03;53.24
71601;BME280;59446;52.192;4.628;2022-11-20T00:24:13;101460.38;;;16.03;52.71
71601;BME280;59446;52.192;4.628;2022-11-20T00:26:38;101457.81;;;16.02;53.08
71601;BME280;59446;52.192;4.628;2022-11-20T00:29:03;101457.97;;;15.99;53.22
71601;BME280;59446;52.192;4.628;2022-11-20T00:31:30;101453.63;;;15.98;53.14
71601;BME280;59446;52.192;4.628;2022-11-20T00:33:55;101458.16;;;15.94;53.80
71601;BME280;59446;52.192;4.628;2022-11-20T00:36:23;101457.22;;;15.95;52.95
71601;BME280;59446;52.192;4.628;2022-11-20T00:38:57;101453.94;;;15.90;53.77
71601;BME280;59446;52.192;4.628;2022-11-20T00:41:23;101447.78;;;15.91;53.37
71601;BME280;59446;52.192;4.628;2022-11-20T00:43:51;101446.84;;;15.92;53.33
71601;BME280;59446;52.192;4.628;2022-11-20T00:46:19;101440.88;;;15.89;53.40
71601;BME280;59446;52.192;4.628;2022-11-20T00:48:45;101439.09;;;15.89;53.29
71601;BME280;59446;52.192;4.628;2022-11-20T00:51:13;101438.28;;;15.87;53.87
71601;BME280;59446;52.192;4.628;2022-11-20T00:53:38;101438.41;;;15.84;53.36
71601;BME280;59446;52.192;4.628;2022-11-20T00:56:06;101434.03;;;15.85;53.27
71601;BME280;59446;52.192;4.628;2022-11-20T00:58:33;101431.44;;;15.83;53.95
71601;BME280;59446;52.192;4.628;2022-11-20T01:01:01;101423.72;;;15.80;53.70
71601;BME280;59446;52.192;4.628;2022-11-20T01:03:27;101428.91;;;15.82;53.42
71601;BME280;59446;52.192;4.628;2022-11-20T01:05:59;101422.06;;;15.78;53.57
71601;BME280;59446;52.192;4.628;2022-11-20T01:08:25;101424.75;;;15.76;54.08
71601;BME280;59446;52.192;4.628;2022-11-20T01:10:50;101422.91;;;15.78;54.06
71601;BME280;59446;52.192;4.628;2022-11-20T01:13:15;101425.53;;;15.78;53.69
71601;BME280;59446;52.192;4.628;2022-11-20T01:16:20;101425.66;;;15.75;53.88
71601;BME280;59446;52.192;4.628;2022-11-20T01:18:51;101423.09;;;15.73;54.06
71601;BME280;59446;52.192;4.628;2022-11-20T01:21:22;101429.28;;;15.72;53.64
71601;BME280;59446;52.192;4.628;2022-11-20T01:23:49;101423.19;;;15.72;53.62
71601;BME280;59446;52.192;4.628;2022-11-20T01:26:19;101420.56;;;15.72;53.92
71601;BME280;59446;52.192;4.628;2022-11-20T01:28:45;101427.63;;;15.70;54.17
71601;BME280;59446;52.192;4.628;2022-11-20T01:31:25;101431.28;;;15.66;53.93
71601;BME280;59446;52.192;4.628;2022-11-20T01:33:53;101431.25;;;15.67;53.76
71601;BME280;59446;52.192;4.628;2022-11-20T01:36:20;101422.47;;;15.67;54.42
71601;BME280;59446;52.192;4.628;2022-11-20T01:38:46;101418.25;;;15.63;54.57
71601;BME280;59446;52.192;4.628;2022-11-20T01:41:13;101414.75;;;15.62;53.91
71601;BME280;59446;52.192;4.628;2022-11-20T01:43:59;101413.13;;;15.60;54.36
71601;BME280;59446;52.192;4.628;2022-11-20T01:46:24;101407.09;;;15.58;54.37
71601;BME280;59446;52.192;4.628;2022-11-20T01:48:55;101411.34;;;15.60;53.87
71601;BME280;59446;52.192;4.628;2022-11-20T01:51:45;101397.50;;;15.57;54.40
71601;BME280;59446;52.192;4.628;2022-11-20T01:54:19;101404.47;;;15.58;54.29
71601;BME280;59446;52.192;4.628;2022-11-20T01:56:48;101408.06;;;15.55;54.04
71601;BME280;59446;52.192;4.628;2022-11-20T01:59:18;101417.78;;;15.53;54.70
71601;BME280;59446;52.192;4.628;2022-11-20T02:01:44;101417.72;;;15.55;54.23
71601;BME280;59446;52.192;4.628;2022-11-20T02:04:10;101409.03;;;15.53;54.43
71601;BME280;59446;52.192;4.628;2022-11-20T02:06:48;101410.81;;;15.52;54.28
71601;BME280;59446;52.192;4.628;2022-11-20T02:09:15;101402.09;;;15.52;53.98
71601;BME280;59446;52.192;4.628;2022-11-20T02:11:40;101403.97;;;15.48;54.52
71601;BME280;59446;52.192;4.628;2022-11-20T02:14:06;101408.44;;;15.46;54.96
71601;BME280;59446;52.192;4.628;2022-11-20T02:16:36;101418.88;;;15.48;54.30
71601;BME280;59446;52.192;4.628;2022-11-20T02:19:07;101422.41;;;15.47;54.75
71601;BME280;59446;52.192;4.628;2022-11-20T02:21:40;101402.28;;;15.47;54.78
71601;BME280;59446;52.192;4.628;2022-11-20T02:24:15;101404.97;;;15.45;54.67
71601;BME280;59446;52.192;4.628;2022-11-20T02:26:54;101405.94;;;15.43;54.83
71601;BME280;59446;52.192;4.628;2022-11-20T02:32:05;101401.63;;;15.40;54.82
71601;BME280;59446;52.192;4.628;2022-11-20T02:34:31;101399.19;;;15.36;54.73
71601;BME280;59446;52.192;4.628;2022-11-20T02:36:57;101399.19;;;15.36;54.44
71601;BME280;59446;52.192;4.628;2022-11-20T02:39:25;101403.47;;;15.38;55.11
71601;BME280;59446;52.192;4.628;2022-11-20T02:41:56;101406.22;;;15.35;54.81
71601;BME280;59446;52.192;4.628;2022-11-20T02:44:21;101396.66;;;15.34;54.94
71601;BME280;59446;52.192;4.628;2022-11-20T02:46:46;101396.66;;;15.34;54.93
71601;BME280;59446;52.192;4.628;2022-11-20T02:49:12;101395.84;;;15.32;55.01
71601;BME280;59446;52.192;4.628;2022-11-20T02:51:37;101391.53;;;15.31;54.49
71601;BME280;59446;52.192;4.628;2022-11-20T02:54:03;101385.41;;;15.31;54.45
71601;BME280;59446;52.192;4.628;2022-11-20T02:56:28;101394.16;;;15.31;54.38
71601;BME280;59446;52.192;4.628;2022-11-20T02:58:54;101385.41;;;15.31;54.98
71601;BME280;59446;52.192;4.628;2022-11-20T03:01:20;101390.53;;;15.34;54.67
71601;BME280;59446;52.192;4.628;2022-11-20T03:03:46;101386.28;;;15.31;54.93
71601;BME280;59446;52.192;4.628;2022-11-20T03:06:13;101378.59;;;15.27;55.07
71601;BME280;59446;52.192;4.628;2022-11-20T03:08:39;101376.03;;;15.25;54.57
71601;BME280;59446;52.192;4.628;2022-11-20T03:11:06;101372.59;;;15.23;54.70
71601;BME280;59446;52.192;4.628;2022-11-20T03:13:32;101364.56;;;15.28;54.44
71601;BME280;59446;52.192;4.628;2022-11-20T03:16:05;101365.59;;;15.24;54.84
71601;BME280;59446;52.192;4.628;2022-11-20T03:18:30;101355.09;;;15.24;54.37
71601;BME280;59446;52.192;4.628;2022-11-20T03:20:59;101361.25;;;15.23;54.95
71601;BME280;59446;52.192;4.628;2022-11-20T03:23:24;101364.88;;;15.20;55.06
71601;BME280;59446;52.192;4.628;2022-11-20T03:25:50;101357.88;;;15.19;54.87
71601;BME280;59446;52.192;4.628;2022-11-20T03:28:15;101352.75;;;15.16;54.82
71601;BME280;59446;52.192;4.628;2022-11-20T03:30:40;101337.81;;;15.18;54.50
71601;BME280;59446;52.192;4.628;2022-11-20T03:33:06;101338.72;;;15.17;54.83
71601;BME280;59446;52.192;4.628;2022-11-20T03:35:31;101338.84;;;15.14;54.54
71601;BME280;59446;52.192;4.628;2022-11-20T03:37:57;101332.75;;;15.13;54.74
71601;BME280;59446;52.192;4.628;2022-11-20T03:40:22;101331.09;;;15.11;54.89
71601;BME280;59446;52.192;4.628;2022-11-20T03:42:48;101341.59;;;15.11;55.21
71601;BME280;59446;52.192;4.628;2022-11-20T03:45:14;101332.03;;;15.10;54.98
71601;BME280;59446;52.192;4.628;2022-11-20T03:47:41;101336.41;;;15.09;54.65
71601;BME280;59446;52.192;4.628;2022-11-20T03:50:07;101339.03;;;15.09;55.15
71601;BME280;59446;52.192;4.628;2022-11-20T03:52:32;101320.00;;;15.04;54.92
71601;BME280;59446;52.192;4.628;2022-11-20T03:54:58;101323.50;;;15.05;55.08
71601;BME280;59446;52.192;4.628;2022-11-20T03:57:23;101312.94;;;15.06;54.76
71601;BME280;59446;52.192;4.628;2022-11-20T03:59:48;101311.16;;;15.07;54.74
71601;BME280;59446;52.192;4.628;2022-11-20T04:02:14;101310.44;;;15.03;54.89
71601;BME280;59446;52.192;4.628;2022-11-20T04:04:39;101318.38;;;15.02;55.22
71601;BME280;59446;52.192;4.628;2022-11-20T04:07:04;101323.66;;;15.00;54.83
71601;BME280;59446;52.192;4.628;2022-11-20T04:09:30;101324.47;;;15.02;55.13
71601;BME280;59446;52.192;4.628;2022-11-20T04:11:55;101326.22;;;15.02;55.17
71601;BME280;59446;52.192;4.628;2022-11-20T04:14:20;101321.00;;;15.02;55.03
71601;BME280;59446;52.192;4.628;2022-11-20T04:16:46;101314.03;;;15.01;55.17
71601;BME280;59446;52.192;4.628;2022-11-20T04:19:14;101311.56;;;14.96;54.71
71601;BME280;59446;52.192;4.628;2022-11-20T04:21:40;101303.81;;;14.93;55.00
71601;BME280;59446;52.192;4.628;2022-11-20T04:24:07;101297.53;;;14.97;55.33
71601;BME280;59446;52.192;4.628;2022-11-20T04:26:33;101294.97;;;14.96;54.97
71601;BME280;59446;52.192;4.628;2022-11-20T04:28:59;101287.19;;;14.94;54.70
71601;BME280;59446;52.192;4.628;2022-11-20T04:31:28;101282.84;;;14.93;55.15
71601;BME280;59446;52.192;4.628;2022-11-20T04:33:54;101282.00;;;14.93;54.97
71601;BME280;59446;52.192;4.628;2022-11-20T04:36:22;101287.31;;;14.91;54.79
71601;BME280;59446;52.192;4.628;2022-11-20T04:38:51;101292.59;;;14.90;55.39
71601;BME280;59446;52.192;4.628;2022-11-20T04:41:19;101275.16;;;14.89;54.83
71601;BME280;59446;52.192;4.628;2022-11-20T04:43:49;101279.50;;;14.90;55.02
71601;BME280;59446;52.192;4.628;2022-11-20T04:46:16;101271.69;;;14.88;54.91
71601;BME280;59446;52.192;4.628;2022-11-20T04:48:42;101271.75;;;14.87;55.03
71601;BME280;59446;52.192;4.628;2022-11-20T04:51:07;101267.44;;;14.86;54.98
71601;BME280;59446;52.192;4.628;2022-11-20T04:53:32;101264.94;;;14.82;54.91
71601;BME280;59446;52.192;4.628;2022-11-20T04:56:06;101265.78;;;14.83;55.45
71601;BME280;59446;52.192;4.628;2022-11-20T04:58:32;101271.81;;;14.85;55.26
71601;BME280;59446;52.192;4.628;2022-11-20T05:01:19;101268.41;;;14.83;54.95
71601;BME280;59446;52.192;4.628;2022-11-20T05:03:45;101270.22;;;14.81;55.05
71601;BME280;59446;52.192;4.628;2022-11-20T05:06:13;101264.00;;;14.83;54.94
71601;BME280;59446;52.192;4.628;2022-11-20T05:08:39;101280.78;;;14.79;55.18
71601;BME280;59446;52.192;4.628;2022-11-20T05:11:15;101281.56;;;14.81;54.89
71601;BME280;59446;52.192;4.628;2022-11-20T05:13:41;101280.72;;;14.81;54.91
71601;BME280;59446;52.192;4.628;2022-11-20T05:16:09;101279.00;;;14.80;55.01
71601;BME280;59446;52.192;4.628;2022-11-20T05:18:36;101275.59;;;14.78;55.01
71601;BME280;59446;52.192;4.628;2022-11-20T05:21:01;101270.47;;;14.75;55.64
71601;BME280;59446;52.192;4.628;2022-11-20T05:23:28;101275.72;;;14.75;55.54
71601;BME280;59446;52.192;4.628;2022-11-20T05:25:55;101284.47;;;14.74;55.12
71601;BME280;59446;52.192;4.628;2022-11-20T05:28:21;101283.63;;;14.73;55.28
71601;BME280;59446;52.192;4.628;2022-11-20T05:30:47;101291.47;;;14.73;55.45
71601;BME280;59446;52.192;4.628;2022-11-20T05:33:13;101288.06;;;14.71;55.33
71601;BME280;59446;52.192;4.628;2022-11-20T05:35:38;101288.19;;;14.68;55.62
71601;BME280;59446;52.192;4.628;2022-11-20T05:38:03;101285.44;;;14.71;55.22
71601;BME280;59446;52.192;4.628;2022-11-20T05:40:29;101286.38;;;14.70;55.26
71601;BME280;59446;52.192;4.628;2022-11-20T05:42:54;101281.25;;;14.67;55.64
71601;BME280;59446;52.192;4.628;2022-11-20T05:45:19;101274.97;;;14.71;55.30
71601;BME280;59446;52.192;4.628;2022-11-20T05:47:45;101272.47;;;14.68;55.09
71601;BME280;59446;52.192;4.628;2022-11-20T05:50:10;101271.69;;;14.66;55.33
71601;BME280;59446;52.192;4.628;2022-11-20T05:52:35;101262.91;;;14.66;55.23
71601;BME280;59446;52.192;4.628;2022-11-20T05:55:01;101269.06;;;14.66;55.18
71601;BME280;59446;52.192;4.628;2022-11-20T05:57:26;101267.31;;;14.65;55.08
71601;BME280;59446;52.192;4.628;2022-11-20T05:59:52;101271.75;;;14.63;55.02
71601;BME280;59446;52.192;4.628;2022-11-20T06:02:17;101266.47;;;14.65;55.76
71601;BME280;59446;52.192;4.628;2022-11-20T06:04:43;101263.97;;;14.62;55.40
71601;BME280;59446;52.192;4.628;2022-11-20T06:07:08;101262.97;;;14.64;55.51
71601;BME280;59446;52.192;4.628;2022-11-20T06:09:33;101259.56;;;14.62;55.07
71601;BME280;59446;52.192;4.628;2022-11-20T06:11:59;101254.38;;;14.61;55.15
71601;BME280;59446;52.192;4.628;2022-11-20T06:14:24;101240.50;;;14.59;55.39
71601;BME280;59446;52.192;4.628;2022-11-20T06:16:50;101235.31;;;14.57;55.46
71601;BME280;59446;52.192;4.628;2022-11-20T06:19:15;101241.34;;;14.59;55.04
71601;BME280;59446;52.192;4.628;2022-11-20T06:21:41;101242.19;;;14.60;55.07
71601;BME280;59446;52.192;4.628;2022-11-20T06:24:06;101240.50;;;14.59;55.46
71601;BME280;59446;52.192;4.628;2022-11-20T06:26:34;101234.47;;;14.57;55.41
71601;BME280;59446;52.192;4.628;2022-11-20T06:28:59;101233.53;;;14.58;55.25
71601;BME280;59446;52.192;4.628;2022-11-20T06:31:25;101231.84;;;14.57;55.77
71601;BME280;59446;52.192;4.628;2022-11-20T06:33:51;101221.47;;;14.53;55.34
71601;BME280;59446;52.192;4.628;2022-11-20T06:36:19;101223.25;;;14.53;55.30
71601;BME280;59446;52.192;4.628;2022-11-20T06:38:45;101223.25;;;14.53;55.47
71601;BME280;59446;52.192;4.628;2022-11-20T06:41:17;101229.38;;;14.52;55.20
71601;BME280;59446;52.192;4.628;2022-11-20T06:43:43;101223.25;;;14.53;55.42
71601;BME280;59446;52.192;4.628;2022-11-20T06:46:12;101219.81;;;14.51;55.68
71601;BME280;59446;52.192;4.628;2022-11-20T06:48:38;101226.75;;;14.52;55.42
71601;BME280;59446;52.192;4.628;2022-11-20T06:51:04;101219.81;;;14.51;55.43
71601;BME280;59446;52.192;4.628;2022-11-20T06:53:30;101228.59;;;14.50;55.14
71601;BME280;59446;52.192;4.628;2022-11-20T06:55:56;101225.16;;;14.48;55.45
71601;BME280;59446;52.192;4.628;2022-11-20T06:58:23;101226.81;;;14.50;55.44
71601;BME280;59446;52.192;4.628;2022-11-20T07:00:48;101219.06;;;14.47;55.15
71601;BME280;59446;52.192;4.628;2022-11-20T07:03:14;101215.59;;;14.47;55.17
71601;BME280;59446;52.192;4.628;2022-11-20T07:05:40;101212.97;;;14.47;55.61
71601;BME280;59446;52.192;4.628;2022-11-20T07:08:05;101210.47;;;14.44;55.33
71601;BME280;59446;52.192;4.628;2022-11-20T07:10:31;101210.47;;;14.44;55.43
71601;BME280;59446;52.192;4.628;2022-11-20T07:12:57;101220.97;;;14.44;55.16
71601;BME280;59446;52.192;4.628;2022-11-20T07:15:24;101224.44;;;14.44;55.36
71601;BME280;59446;52.192;4.628;2022-11-20T07:17:50;101222.66;;;14.45;55.26
71601;BME280;59446;52.192;4.628;2022-11-20T07:20:15;101218.41;;;14.42;55.61
71601;BME280;59446;52.192;4.628;2022-11-20T07:22:41;101217.50;;;14.43;55.44
71601;BME280;59446;52.192;4.628;2022-11-20T07:25:08;101226.25;;;14.42;55.48
71601;BME280;59446;52.192;4.628;2022-11-20T07:27:33;101233.22;;;14.43;55.09
71601;BME280;59446;52.192;4.628;2022-11-20T07:29:59;101228.09;;;14.40;55.29
71601;BME280;59446;52.192;4.628;2022-11-20T07:32:24;101222.00;;;14.40;55.46
71601;BME280;59446;52.192;4.628;2022-11-20T07:34:50;101232.34;;;14.43;55.28
71601;BME280;59446;52.192;4.628;2022-11-20T07:37:15;101228.81;;;14.44;55.39
71601;BME280;59446;52.192;4.628;2022-11-20T07:39:41;101220.16;;;14.42;55.27
71601;BME280;59446;52.192;4.628;2022-11-20T07:42:07;101214.13;;;14.40;55.54
71601;BME280;59446;52.192;4.628;2022-11-20T07:44:33;101214.25;;;14.37;55.41
71601;BME280;59446;52.192;4.628;2022-11-20T07:46:59;101208.03;;;14.39;55.23
71601;BME280;59446;52.192;4.628;2022-11-20T07:49:24;101210.31;;;14.48;54.77
71601;BME280;59446;52.192;4.628;2022-11-20T07:51:50;101211.34;;;14.44;55.02
71601;BME280;59446;52.192;4.628;2022-11-20T07:54:16;101213.09;;;14.44;55.26
71601;BME280;59446;52.192;4.628;2022-11-20T07:56:41;101209.69;;;14.42;55.01
71601;BME280;59446;52.192;4.628;2022-11-20T07:59:07;101212.56;;;14.36;54.85
71601;BME280;59446;52.192;4.628;2022-11-20T08:01:32;101211.69;;;14.35;55.04
71601;BME280;59446;52.192;4.628;2022-11-20T08:03:58;101216.09;;;14.35;55.07
71601;BME280;59446;52.192;4.628;2022-11-20T08:06:23;101229.38;;;14.30;55.26
71601;BME280;59446;52.192;4.628;2022-11-20T08:08:50;101223.16;;;14.33;55.09
71601;BME280;59446;52.192;4.628;2022-11-20T08:11:15;101226.84;;;14.27;55.03
71601;BME280;59446;52.192;4.628;2022-11-20T08:13:59;101225.59;;;14.14;55.62
71601;BME280;59446;52.192;4.628;2022-11-20T08:16:37;101223.25;;;14.06;55.21
71601;BME280;59446;52.192;4.628;2022-11-20T08:19:02;101218.72;;;14.11;55.49
71601;BME280;59446;52.192;4.628;2022-11-20T08:21:28;101218.97;;;14.27;54.90
71601;BME280;59446;52.192;4.628;2022-11-20T08:23:53;101215.00;;;14.40;55.10
71601;BME280;59446;52.192;4.628;2022-11-20T08:26:18;101214.34;;;14.57;54.53
71601;BME280;59446;52.192;4.628;2022-11-20T08:28:45;101206.81;;;14.71;54.26
71601;BME280;59446;52.192;4.628;2022-11-20T08:31:11;101197.94;;;14.75;54.06
71601;BME280;59446;52.192;4.628;2022-11-20T08:33:36;101196.91;;;14.79;54.51
71601;BME280;59446;52.192;4.628;2022-11-20T08:36:03;101201.28;;;14.79;54.50
71601;BME280;59446;52.192;4.628;2022-11-20T08:38:29;101199.00;;;14.92;54.64
71601;BME280;59446;52.192;4.628;2022-11-20T08:40:58;101196.81;;;15.03;53.87
71601;BME280;59446;52.192;4.628;2022-11-20T08:43:42;101190.19;;;15.14;53.46
71601;BME280;59446;52.192;4.628;2022-11-20T08:46:07;101191.59;;;15.23;53.87
71601;BME280;59446;52.192;4.628;2022-11-20T08:48:33;101193.44;;;15.21;53.36
71601;BME280;59446;52.192;4.628;2022-11-20T08:50:58;101194.34;;;15.20;54.09
71601;BME280;59446;52.192;4.628;2022-11-20T08:53:24;101191.06;;;15.35;53.22
71601;BME280;59446;52.192;4.628;2022-11-20T08:55:50;101194.03;;;15.48;53.70
71601;BME280;59446;52.192;4.628;2022-11-20T08:58:15;101183.19;;;15.56;53.26
71601;BME280;59446;52.192;4.628;2022-11-20T09:00:41;101172.59;;;15.57;52.92
71601;BME280;59446;52.192;4.628;2022-11-20T09:03:06;101188.34;;;15.57;53.40
71601;BME280;59446;52.192;4.628;2022-11-20T09:05:31;101192.63;;;15.60;53.29
71601;BME280;59446;52.192;4.628;2022-11-20T09:07:57;101173.06;;;15.67;52.91
71601;BME280;59446;52.192;4.628;2022-11-20T09:10:23;101174.31;;;15.79;52.76
71601;BME280;59446;52.192;4.628;2022-11-20T09:12:49;101174.03;;;15.85;52.14
71601;BME280;59446;52.192;4.628;2022-11-20T09:15:14;101185.47;;;15.84;52.04
71601;BME280;59446;52.192;4.628;2022-11-20T09:17:40;101181.13;;;15.83;52.44
71601;BME280;59446;52.192;4.628;2022-11-20T09:20:05;101169.00;;;15.80;51.66
71601;BME280;59446;52.192;4.628;2022-11-20T09:22:31;101164.94;;;15.73;51.73
71601;BME280;59446;52.192;4.628;2022-11-20T09:24:56;101166.09;;;15.67;52.07
71601;BME280;59446;52.192;4.628;2022-11-20T09:27:22;101165.38;;;15.62;51.76
71601;BME280;59446;52.192;4.628;2022-11-20T09:29:47;101150.63;;;15.60;51.54
71601;BME280;59446;52.192;4.628;2022-11-20T09:32:12;101152.19;;;15.64;51.84
71601;BME280;59446;52.192;4.628;2022-11-20T09:34:38;101163.03;;;15.77;50.83
71601;BME280;59446;52.192;4.628;2022-11-20T09:37:03;101143.28;;;15.87;51.31
71601;BME280;59446;52.192;4.628;2022-11-20T09:39:28;101140.06;;;16.00;50.85
71601;BME280;59446;52.192;4.628;2022-11-20T09:50:33;101120.22;;;16.31;50.23
71601;BME280;59446;52.192;4.628;2022-11-20T09:53:11;101113.53;;;16.43;50.77
71601;BME280;59446;52.192;4.628;2022-11-20T09:55:37;101121.25;;;16.64;50.66
71601;BME280;59446;52.192;4.628;2022-11-20T09:58:06;101115.53;;;16.74;50.46
71601;BME280;59446;52.192;4.628;2022-11-20T10:00:35;101107.63;;;16.74;50.56
71601;BME280;59446;52.192;4.628;2022-11-20T10:03:06;101099.75;;;16.74;50.68
71601;BME280;59446;52.192;4.628;2022-11-20T10:05:45;101096.97;;;16.77;50.92
71601;BME280;59446;52.192;4.628;2022-11-20T10:08:39;101092.88;;;16.88;51.24
71601;BME280;59446;52.192;4.628;2022-11-20T10:11:23;101080.94;;;16.98;50.94
71601;BME280;59446;52.192;4.628;2022-11-20T10:22:32;101064.38;;;17.14;50.90
71601;BME280;59446;52.192;4.628;2022-11-20T10:25:18;101070.63;;;17.28;50.74
71601;BME280;59446;52.192;4.628;2022-11-20T10:30:38;101056.44;;;17.31;51.15
71601;BME280;59446;52.192;4.628;2022-11-20T10:33:15;101042.59;;;17.27;51.14
71601;BME280;59446;52.192;4.628;2022-11-20T10:35:42;101035.41;;;17.31;51.13
71601;BME280;59446;52.192;4.628;2022-11-20T10:38:17;101022.56;;;17.41;50.87
71601;BME280;59446;52.192;4.628;2022-11-20T10:40:49;101032.72;;;17.48;50.96
71601;BME280;59446;52.192;4.628;2022-11-20T10:43:28;101021.94;;;17.53;50.83
71601;BME280;59446;52.192;4.628;2022-11-20T10:45:58;101019.53;;;17.48;51.03
71601;BME280;59446;52.192;4.628;2022-11-20T10:48:26;101011.72;;;17.47;51.36
71601;BME280;59446;52.192;4.628;2022-11-20T10:53:43;100988.94;;;17.46;51.75
71601;BME280;59446;52.192;4.628;2022-11-20T10:56:21;100989.19;;;17.41;51.79
71601;BME280;59446;52.192;4.628;2022-11-20T10:59:00;100985.03;;;17.37;52.10
71601;BME280;59446;52.192;4.628;2022-11-20T11:01:27;100978.25;;;17.33;51.85
71601;BME280;59446;52.192;4.628;2022-11-20T11:03:55;100966.97;;;17.31;52.00
71601;BME280;59446;52.192;4.628;2022-11-20T11:06:29;100966.09;;;17.31;52.14
71601;BME280;59446;52.192;4.628;2022-11-20T11:09:02;100969.69;;;17.30;52.19
71601;BME280;59446;52.192;4.628;2022-11-20T11:11:31;100964.81;;;17.22;52.49
71601;BME280;59446;52.192;4.628;2022-11-20T11:14:07;100963.03;;;17.22;52.20
71601;BME280;59446;52.192;4.628;2022-11-20T11:16:33;100961.19;;;17.24;52.18
71601;BME280;59446;52.192;4.628;2022-11-20T11:19:04;100970.31;;;17.17;52.71
71601;BME280;59446;52.192;4.628;2022-11-20T11:21:29;100951.13;;;17.15;52.69
71601;BME280;59446;52.192;4.628;2022-11-20T11:24:03;100947.84;;;17.12;52.68
71601;BME280;59446;52.192;4.628;2022-11-20T11:26:29;100954.44;;;17.03;53.52
71601;BME280;59446;52.192;4.628;2022-11-20T11:29:03;100939.72;;;16.99;53.49
71601;BME280;59446;52.192;4.628;2022-11-20T11:31:33;100936.41;;;16.95;53.20
71601;BME280;59446;52.192;4.628;2022-11-20T11:34:06;100917.59;;;16.87;53.77
71601;BME280;59446;52.192;4.628;2022-11-20T11:36:35;100917.66;;;16.86;53.94
71601;BME280;59446;52.192;4.628;2022-11-20T11:39:02;100910.78;;;16.83;53.99
71601;BME280;59446;52.192;4.628;2022-11-20T11:41:33;100910.88;;;16.82;53.35
71601;BME280;59446;52.192;4.628;2022-11-20T11:47:09;100891.00;;;16.76;53.02
71601;BME280;59446;52.192;4.628;2022-11-20T11:49:36;100889.06;;;16.80;52.74
71601;BME280;59446;52.192;4.628;2022-11-20T11:52:12;100886.56;;;16.77;52.98
71601;BME280;59446;52.192;4.628;2022-11-20T11:55:00;100883.19;;;16.75;52.97
71601;BME280;59446;52.192;4.628;2022-11-20T11:57:45;100879.97;;;16.70;52.64
71601;BME280;59446;52.192;4.628;2022-11-20T12:00:17;100868.84;;;16.64;52.31
71601;BME280;59446;52.192;4.628;2022-11-20T12:07:46;100854.44;;;16.54;52.76
71601;BME280;59446;52.192;4.628;2022-11-20T12:10:41;100842.66;;;16.46;52.64
71601;BME280;59446;52.192;4.628;2022-11-20T12:15:58;100822.97;;;16.37;53.37
71601;BME280;59446;52.192;4.628;2022-11-20T12:18:23;100805.63;;;16.33;53.33
71601;BME280;59446;52.192;4.628;2022-11-20T12:24:10;100789.28;;;16.28;53.47
71601;BME280;59446;52.192;4.628;2022-11-20T12:29:59;100792.16;;;16.23;53.63
71601;BME280;59446;52.192;4.628;2022-11-20T12:38:49;100796.81;;;16.18;53.77
71601;BME280;59446;52.192;4.628;2022-11-20T12:53:04;100799.63;;;16.95;53.28
71601;BME280;59446;52.192;4.628;2022-11-20T12:55:49;100788.63;;;17.05;53.47
71601;BME280;59446;52.192;4.628;2022-11-20T12:58:29;100775.38;;;17.06;53.36
71601;BME280;59446;52.192;4.628;2022-11-20T13:03:41;100764.47;;;17.28;52.27
71601;BME280;59446;52.192;4.628;2022-11-20T13:06:17;100769.84;;;17.41;52.38
71601;BME280;59446;52.192;4.628;2022-11-20T13:08:54;100767.41;;;17.53;52.23
71601;BME280;59446;52.192;4.628;2022-11-20T13:14:18;100753.53;;;17.80;51.20
71601;BME280;59446;52.192;4.628;2022-11-20T13:19:55;100736.81;;;17.95;50.89
71601;BME280;59446;52.192;4.628;2022-11-20T13:22:27;100712.25;;;17.95;50.73
71601;BME280;59446;52.192;4.628;2022-11-20T13:24:53;100713.94;;;17.96;50.75
71601;BME280;59446;52.192;4.628;2022-11-20T13:27:21;100700.09;;;18.06;50.32
71601;BME280;59446;52.192;4.628;2022-11-20T13:30:13;100691.16;;;18.09;50.73
71601;BME280;59446;52.192;4.628;2022-11-20T13:35:34;100704.22;;;18.10;50.79
71601;BME280;59446;52.192;4.628;2022-11-20T13:38:19;100701.69;;;18.23;50.26
71601;BME280;59446;52.192;4.628;2022-11-20T13:40:59;100698.50;;;18.18;50.18
71601;BME280;59446;52.192;4.628;2022-11-20T13:43:47;100700.50;;;18.14;50.34
71601;BME280;59446;52.192;4.628;2022-11-20T13:46:13;100697.84;;;18.14;50.54
71601;BME280;59446;52.192;4.628;2022-11-20T13:48:42;100697.28;;;18.09;50.30
71601;BME280;59446;52.192;4.628;2022-11-20T13:51:15;100682.22;;;18.11;50.06
71601;BME280;59446;52.192;4.628;2022-11-20T13:59:27;100672.84;;;17.93;50.43
71601;BME280;59446;52.192;4.628;2022-11-20T14:01:57;100677.06;;;17.96;50.64
71601;BME280;59446;52.192;4.628;2022-11-20T14:04:33;100662.28;;;17.93;50.50
71601;BME280;59446;52.192;4.628;2022-11-20T14:07:01;100662.28;;;17.93;50.59
71601;BME280;59446;52.192;4.628;2022-11-20T14:09:32;100658.53;;;17.97;50.43
71601;BME280;59446;52.192;4.628;2022-11-20T14:11:58;100650.53;;;17.99;50.03
71601;BME280;59446;52.192;4.628;2022-11-20T14:14:28;100653.06;;;18.00;50.07
71601;BME280;59446;52.192;4.628;2022-11-20T14:17:21;100646.75;;;18.03;50.04